Time;durP1;ratioP1;P1;durP2;ratioP2;P2;SDS_P1;SDS_P2;PMS_P1;PMS_P2;Temp;Humidity;BMP_temperature;BMP_pressure;BME280_temperature;BME280_humidity;BME280_pressure;Samples;Min_cycle;Max_cycle;Signal;HPM_P1;HPM_P2
2022/08/14 00:00:23;;;;;;;0.70;0.70;;;13.00;55.60;;;;;;5050322;28;20215;-38
2022/08/14 00:02:56;;;;;;;1.50;0.70;;;13.10;55.70;;;;;;5050281;28;20686;-38
2022/08/14 00:05:27;;;;;;;1.75;0.70;;;13.10;55.80;;;;;;5050158;28;20207;-38
2022/08/14 00:07:57;;;;;;;1.17;0.95;;;13.10;55.70;;;;;;5050673;28;20195;-38
2022/08/14 00:10:28;;;;;;;0.95;0.73;;;13.20;55.80;;;;;;5050823;28;20195;-39
2022/08/14 00:12:59;;;;;;;2.75;1.15;;;13.20;55.80;;;;;;5051018;28;20195;-38
2022/08/14 00:15:33;;;;;;;3.20;1.30;;;13.30;55.80;;;;;;5050212;28;20203;-38
2022/08/14 00:18:07;;;;;;;4.70;1.80;;;13.30;55.70;;;;;;5049712;28;20218;-45
2022/08/14 00:20:41;;;;;;;2.92;1.75;;;13.30;55.70;;;;;;5049020;28;20202;-38
2022/08/14 00:23:15;;;;;;;3.33;1.20;;;13.40;55.70;;;;;;5048462;28;20217;-38
2022/08/14 00:25:46;;;;;;;2.83;1.55;;;13.40;55.70;;;;;;5047827;28;20695;-44
2022/08/14 00:28:17;;;;;;;4.60;2.03;;;13.40;55.60;;;;;;5029149;28;20196;-40
2022/08/14 00:30:49;;;;;;;2.80;1.50;;;13.50;55.60;;;;;;5029258;28;20196;-37
2022/08/14 00:33:22;;;;;;;4.40;1.75;;;13.50;55.60;;;;;;5029301;28;20208;-37
2022/08/14 00:35:52;;;;;;;2.38;1.60;;;13.60;55.60;;;;;;5028667;28;20215;-38
2022/08/14 00:38:23;;;;;;;1.92;1.38;;;13.60;55.60;;;;;;5029402;28;20222;-37
2022/08/14 00:40:54;;;;;;;2.13;1.55;;;13.60;55.60;;;;;;5041506;28;20195;-47
2022/08/14 00:43:25;;;;;;;1.70;1.25;;;13.60;55.60;;;;;;5048745;28;20250;-46
2022/08/14 00:45:56;;;;;;;3.45;1.42;;;13.70;55.60;;;;;;5048579;28;20223;-40
2022/08/14 00:48:28;;;;;;;2.13;1.48;;;13.70;55.60;;;;;;5048561;28;20646;-43
2022/08/14 00:50:59;;;;;;;2.03;1.42;;;13.80;55.60;;;;;;5048687;28;20195;-39
2022/08/14 00:53:30;;;;;;;2.53;1.48;;;13.80;55.60;;;;;;5049039;28;20207;-47
2022/08/14 00:56:01;;;;;;;2.53;1.48;;;13.80;55.60;;;;;;5048656;28;20733;-38
2022/08/14 00:58:31;;;;;;;3.72;1.70;;;13.90;55.70;;;;;;5049018;28;20208;-38
2022/08/14 01:01:04;;;;;;;3.17;1.60;;;13.90;55.70;;;;;;5048931;28;20689;-42
2022/08/14 01:03:38;;;;;;;3.30;1.48;;;13.90;55.70;;;;;;5048874;28;20223;-42
2022/08/14 01:06:10;;;;;;;2.38;1.48;;;14.00;55.80;;;;;;5048677;28;20583;-40
2022/08/14 01:08:42;;;;;;;2.75;1.52;;;14.00;55.70;;;;;;5048605;28;20192;-38
2022/08/14 01:11:14;;;;;;;2.80;1.50;;;14.00;55.70;;;;;;5048007;28;20199;-41
2022/08/14 01:13:46;;;;;;;2.45;1.52;;;14.10;55.80;;;;;;5048433;28;20654;-48
2022/08/14 01:16:19;;;;;;;2.95;1.55;;;14.10;55.80;;;;;;5048403;28;20216;-43
2022/08/14 01:21:44;;;;;;;4.20;1.48;;;14.20;55.80;;;;;;5048254;28;20333;-38
2022/08/14 01:24:15;;;;;;;2.10;1.52;;;14.20;55.80;;;;;;5048371;28;20261;-42
2022/08/14 01:26:46;;;;;;;2.22;1.50;;;14.20;55.80;;;;;;5048142;28;20288;-38
2022/08/14 01:29:18;;;;;;;2.20;1.52;;;14.30;55.90;;;;;;5048785;28;20195;-45
2022/08/14 01:31:51;;;;;;;3.28;1.60;;;14.30;55.90;;;;;;5048502;28;20675;-46
2022/08/14 01:34:25;;;;;;;2.83;1.30;;;14.30;55.80;;;;;;5048624;28;20200;-38
2022/08/14 01:36:57;;;;;;;3.42;1.92;;;14.40;55.90;;;;;;5050700;28;20749;-37
2022/08/14 01:39:28;;;;;;;3.67;1.55;;;14.40;55.80;;;;;;5052221;28;20569;-39
2022/08/14 01:41:59;;;;;;;3.17;1.50;;;14.50;55.80;;;;;;5051634;28;20606;-45
2022/08/14 01:44:31;;;;;;;1.85;1.17;;;14.40;55.70;;;;;;5051097;28;20219;-41
2022/08/14 01:47:08;;;;;;;2.22;1.50;;;14.50;55.70;;;;;;5048502;28;20212;-40
2022/08/14 01:49:39;;;;;;;3.53;1.50;;;14.60;55.80;;;;;;5031903;28;20211;-44
2022/08/14 01:52:11;;;;;;;3.35;1.70;;;14.60;55.80;;;;;;5031695;28;20246;-38
2022/08/14 01:54:42;;;;;;;2.72;1.88;;;14.60;55.80;;;;;;5031522;28;20196;-42
2022/08/14 01:57:13;;;;;;;2.70;1.60;;;14.60;55.80;;;;;;5049066;28;20215;-38
2022/08/14 01:59:44;;;;;;;4.13;1.40;;;14.70;55.80;;;;;;5051444;28;20195;-38
2022/08/14 02:02:15;;;;;;;2.55;1.35;;;14.70;55.80;;;;;;5051225;28;20195;-42
2022/08/14 02:04:45;;;;;;;2.22;1.35;;;14.70;55.70;;;;;;5051893;28;20230;-38
2022/08/14 02:07:19;;;;;;;2.65;1.60;;;14.70;55.70;;;;;;5051888;28;20211;-38
2022/08/14 02:09:49;;;;;;;3.47;1.65;;;14.80;55.70;;;;;;5051760;28;20203;-38
2022/08/14 02:12:20;;;;;;;2.08;1.42;;;14.80;55.70;;;;;;5051120;28;20721;-40
2022/08/14 02:14:51;;;;;;;3.75;1.42;;;14.90;55.60;;;;;;5051386;28;20203;-39
2022/08/14 02:17:22;;;;;;;2.42;1.40;;;14.90;55.60;;;;;;5051743;28;20226;-47
2022/08/14 02:19:53;;;;;;;2.83;1.40;;;14.90;55.50;;;;;;5050522;28;20241;-38
2022/08/14 02:22:26;;;;;;;2.58;1.60;;;14.90;55.40;;;;;;5050869;28;20393;-43
2022/08/14 02:24:56;;;;;;;1.60;1.10;;;15.00;55.50;;;;;;5051181;28;20227;-41
2022/08/14 02:27:28;;;;;;;2.53;1.45;;;15.00;55.40;;;;;;5050729;28;20581;-45
2022/08/14 02:29:58;;;;;;;3.00;1.40;;;15.10;55.50;;;;;;5051082;28;20203;-46
2022/08/14 02:32:30;;;;;;;2.22;1.60;;;15.10;55.40;;;;;;5050931;28;20188;-44
2022/08/14 02:35:02;;;;;;;2.15;1.25;;;15.10;55.40;;;;;;5051063;28;20589;-45
2022/08/14 02:37:35;;;;;;;2.58;1.40;;;15.20;55.40;;;;;;5051256;28;20936;-40
2022/08/14 02:40:06;;;;;;;3.70;1.92;;;15.20;55.40;;;;;;5051153;28;20567;-43
2022/08/14 02:42:38;;;;;;;2.88;1.67;;;15.20;55.40;;;;;;5050498;28;20191;-50
2022/08/14 02:45:09;;;;;;;3.90;1.40;;;15.30;55.40;;;;;;5050228;28;20237;-39
2022/08/14 02:47:40;;;;;;;2.00;1.70;;;15.30;55.30;;;;;;5045878;28;20261;-38
2022/08/14 02:50:11;;;;;;;2.13;1.40;;;15.30;55.30;;;;;;5050800;28;20200;-38
2022/08/14 02:52:47;;;;;;;3.75;1.70;;;15.40;55.20;;;;;;5050749;28;20195;-38
2022/08/14 02:55:18;;;;;;;3.45;1.55;;;15.40;55.20;;;;;;5050863;28;20195;-38
2022/08/14 02:57:53;;;;;;;2.67;1.40;;;15.40;55.10;;;;;;5050299;28;20623;-50
2022/08/14 03:00:24;;;;;;;1.85;1.30;;;15.50;55.10;;;;;;5050331;28;20256;-38
2022/08/14 03:02:54;;;;;;;2.60;1.70;;;15.50;55.10;;;;;;5050043;28;20195;-43
2022/08/14 03:05:25;;;;;;;3.28;1.50;;;15.60;55.00;;;;;;5049991;28;20227;-38
2022/08/14 03:08:07;;;;;;;1.63;1.50;;;15.60;55.00;;;;;;5050229;28;20188;-38
2022/08/14 03:10:38;;;;;;;3.03;1.90;;;15.60;55.00;;;;;;5050006;28;20292;-40
2022/08/14 03:13:09;;;;;;;2.20;1.45;;;15.60;55.00;;;;;;5050626;28;20546;-38
2022/08/14 03:15:45;;;;;;;3.28;1.58;;;15.70;55.00;;;;;;5050023;28;20569;-38
2022/08/14 03:18:16;;;;;;;3.58;1.80;;;15.70;55.00;;;;;;5049846;28;20692;-38
2022/08/14 03:20:47;;;;;;;1.73;1.40;;;15.70;54.90;;;;;;5050951;28;20195;-38
2022/08/14 03:23:20;;;;;;;3.30;1.67;;;15.80;55.00;;;;;;5050426;28;20199;-38
2022/08/14 03:25:51;;;;;;;2.55;1.67;;;15.80;54.90;;;;;;5050038;28;20220;-43
2022/08/14 03:28:25;;;;;;;3.25;1.60;;;15.80;54.80;;;;;;5050132;28;20196;-43
2022/08/14 03:30:56;;;;;;;2.83;1.67;;;15.90;54.80;;;;;;5049747;28;20643;-38
2022/08/14 03:33:27;;;;;;;2.13;1.50;;;15.90;54.80;;;;;;5049586;28;20195;-38
2022/08/14 03:35:58;;;;;;;2.03;1.60;;;16.00;54.70;;;;;;5050068;28;20219;-38
2022/08/14 03:38:31;;;;;;;3.17;1.60;;;16.00;54.70;;;;;;5049520;28;20674;-38
2022/08/14 03:41:02;;;;;;;3.10;1.88;;;16.00;54.70;;;;;;5049385;28;20202;-38
2022/08/14 03:43:32;;;;;;;4.50;1.63;;;16.10;54.80;;;;;;5049250;28;20199;-38
2022/08/14 03:46:03;;;;;;;3.30;2.05;;;16.10;54.80;;;;;;5049069;28;20230;-40
2022/08/14 03:48:34;;;;;;;4.03;1.88;;;16.10;54.70;;;;;;5033945;28;20200;-43
2022/08/14 03:51:07;;;;;;;3.15;2.00;;;16.10;54.70;;;;;;5029462;28;21009;-44
2022/08/14 03:53:40;;;;;;;3.33;1.75;;;16.20;54.70;;;;;;5036862;28;20195;-39
2022/08/14 03:56:13;;;;;;;2.85;1.90;;;16.20;54.70;;;;;;5047965;28;20230;-38
2022/08/14 03:58:45;;;;;;;5.32;2.00;;;16.30;54.80;;;;;;5046261;28;20195;-39
2022/08/14 04:01:18;;;;;;;2.92;2.40;;;16.30;54.60;;;;;;5028623;28;20203;-52
2022/08/14 04:03:49;;;;;;;2.50;2.05;;;16.30;54.60;;;;;;5029211;28;20192;-50
2022/08/14 04:06:21;;;;;;;2.72;1.50;;;16.30;54.50;;;;;;5030322;28;20231;-50
2022/08/14 04:08:54;;;;;;;5.63;2.30;;;16.40;54.50;;;;;;5030303;28;20196;-51
2022/08/14 04:11:24;;;;;;;3.42;2.15;;;16.40;54.40;;;;;;5036706;28;20669;-49
2022/08/14 04:13:55;;;;;;;2.90;1.60;;;16.40;54.40;;;;;;5039505;28;20203;-50
2022/08/14 04:16:26;;;;;;;2.85;1.85;;;16.40;54.30;;;;;;5045488;28;20227;-56
2022/08/14 04:18:59;;;;;;;2.63;2.05;;;16.40;54.20;;;;;;5050035;28;20210;-58
2022/08/14 04:21:31;;;;;;;3.13;2.00;;;16.50;54.30;;;;;;5050713;28;20202;-48
2022/08/14 04:24:04;;;;;;;4.13;2.10;;;16.50;54.30;;;;;;5049490;28;20218;-43
2022/08/14 04:26:35;;;;;;;2.50;1.90;;;16.50;54.40;;;;;;5049423;28;20250;-41
2022/08/14 04:29:06;;;;;;;2.70;2.08;;;16.50;54.40;;;;;;5042641;28;20196;-50
2022/08/14 04:31:37;;;;;;;3.15;2.20;;;16.50;54.40;;;;;;5049646;28;20305;-48
2022/08/14 04:34:08;;;;;;;2.55;1.90;;;16.50;54.30;;;;;;5049575;28;20628;-53
2022/08/14 04:43:34;;;;;;;3.17;1.90;;;16.60;54.30;;;;;;5049058;28;20215;-42
2022/08/14 04:45:05;;;;;;;4.47;2.28;;;16.60;54.30;;;;;;5049315;28;20229;-53
2022/08/14 04:50:22;;;;;;;2.95;1.95;;;16.70;54.30;;;;;;5032510;28;20258;-50
2022/08/14 04:52:53;;;;;;;4.35;2.08;;;16.70;54.30;;;;;;5030533;28;20218;-45
2022/08/14 04:55:29;;;;;;;3.53;2.05;;;16.70;54.30;;;;;;5048082;28;20194;-51
2022/08/14 04:58:00;;;;;;;2.80;2.08;;;16.70;54.30;;;;;;5048949;28;20595;-50
2022/08/14 05:00:31;;;;;;;3.97;2.17;;;16.70;54.40;;;;;;5048986;28;20655;-52
2022/08/14 05:03:03;;;;;;;2.83;2.17;;;16.70;54.40;;;;;;5049046;28;20210;-54
2022/08/14 05:05:34;;;;;;;4.30;2.05;;;16.70;54.40;;;;;;5049019;28;20223;-54
2022/08/14 05:08:11;;;;;;;4.47;2.13;;;16.70;54.40;;;;;;5048781;28;20200;-53
2022/08/14 05:10:45;;;;;;;3.63;2.10;;;16.70;54.40;;;;;;5050173;28;20196;-54
2022/08/14 05:13:16;;;;;;;2.90;2.20;;;16.80;54.40;;;;;;5053090;28;20658;-50
2022/08/14 05:15:47;;;;;;;2.88;2.20;;;16.80;54.40;;;;;;5053460;28;20199;-57
2022/08/14 05:18:21;;;;;;;4.32;2.38;;;16.80;54.40;;;;;;5052653;28;20204;-50
2022/08/14 05:20:54;;;;;;;3.40;2.42;;;16.80;54.40;;;;;;5054002;28;20200;-55
2022/08/14 05:23:27;;;;;;;4.30;2.80;;;16.80;54.40;;;;;;5052559;28;20713;-53
2022/08/14 05:26:01;;;;;;;3.60;2.15;;;16.80;54.40;;;;;;5054204;28;20227;-56
2022/08/14 05:28:32;;;;;;;2.97;2.13;;;16.80;54.40;;;;;;5053993;28;20282;-47
2022/08/14 05:31:05;;;;;;;3.65;2.15;;;16.80;54.40;;;;;;5053866;28;20594;-56
2022/08/14 05:33:38;;;;;;;4.22;2.75;;;16.80;54.50;;;;;;5052601;28;20202;-52
2022/08/14 05:36:10;;;;;;;4.43;2.55;;;16.70;54.50;;;;;;5055178;28;20231;-53
2022/08/14 05:38:42;;;;;;;4.65;2.47;;;16.70;54.50;;;;;;5053265;28;20214;-43
2022/08/14 05:41:17;;;;;;;5.70;2.97;;;16.70;54.50;;;;;;5052105;28;20203;-40
2022/08/14 05:43:48;;;;;;;3.67;2.53;;;16.70;54.50;;;;;;5052615;28;20191;-43
2022/08/14 05:46:21;;;;;;;3.63;2.35;;;16.70;54.60;;;;;;5053444;28;20227;-49
2022/08/14 05:48:53;;;;;;;4.53;2.60;;;16.70;54.50;;;;;;5044493;28;20561;-42
2022/08/14 05:51:25;;;;;;;6.05;3.72;;;16.70;54.60;;;;;;5032454;28;20200;-39
2022/08/14 05:53:56;;;;;;;5.72;3.80;;;16.70;54.80;;;;;;5031893;28;20546;-39
2022/08/14 05:56:29;;;;;;;5.32;3.67;;;16.70;54.80;;;;;;5037958;28;20227;-38
2022/08/14 05:59:00;;;;;;;4.82;3.47;;;16.70;55.00;;;;;;5052703;28;20192;-39
2022/08/14 06:01:31;;;;;;;5.32;3.58;;;16.70;54.90;;;;;;5052293;28;20207;-39
2022/08/14 06:04:01;;;;;;;4.55;3.25;;;16.70;54.90;;;;;;5052089;28;20191;-39
2022/08/14 06:06:32;;;;;;;5.13;3.70;;;16.70;54.90;;;;;;5052617;28;20219;-39
2022/08/14 06:09:03;;;;;;;4.15;3.40;;;16.70;54.90;;;;;;5051696;28;20651;-41
2022/08/14 06:11:35;;;;;;;3.88;3.20;;;16.70;54.90;;;;;;5052562;28;20200;-39
2022/08/14 06:14:06;;;;;;;4.28;3.50;;;16.70;54.90;;;;;;5051483;28;20659;-38
2022/08/14 06:16:37;;;;;;;4.80;3.20;;;16.60;54.80;;;;;;5052368;28;20238;-39
2022/08/14 06:19:07;;;;;;;4.05;3.13;;;16.60;54.80;;;;;;5051646;28;20199;-38
2022/08/14 06:21:38;;;;;;;4.28;3.15;;;16.60;54.80;;;;;;5052862;28;20203;-50
2022/08/14 06:24:09;;;;;;;4.05;3.47;;;16.60;54.80;;;;;;5049864;28;20232;-38
2022/08/14 06:26:42;;;;;;;4.30;3.17;;;16.60;54.80;;;;;;5052220;28;20227;-39
2022/08/14 06:29:13;;;;;;;6.22;3.22;;;16.50;54.70;;;;;;5051578;28;20203;-38
2022/08/14 06:31:43;;;;;;;5.00;3.53;;;16.50;54.70;;;;;;5051344;28;20199;-38
2022/08/14 06:34:14;;;;;;;4.15;3.33;;;16.50;54.70;;;;;;5051716;28;20682;-45
2022/08/14 06:36:45;;;;;;;4.05;3.25;;;16.40;54.70;;;;;;5051207;28;20215;-40
2022/08/14 06:39:16;;;;;;;4.43;3.72;;;16.40;54.80;;;;;;5046417;28;20192;-39
2022/08/14 06:41:48;;;;;;;3.90;3.08;;;16.40;54.80;;;;;;5031607;28;20207;-38
2022/08/14 06:44:19;;;;;;;4.38;3.03;;;16.40;54.80;;;;;;5031788;28;20192;-41
2022/08/14 06:46:49;;;;;;;3.92;3.25;;;16.30;54.80;;;;;;5035378;28;20204;-38
2022/08/14 06:49:20;;;;;;;3.88;3.13;;;16.30;54.80;;;;;;5033222;28;20188;-38
2022/08/14 06:51:51;;;;;;;3.95;2.97;;;16.30;54.90;;;;;;5032180;28;20870;-40
2022/08/14 06:54:22;;;;;;;4.80;3.38;;;16.30;54.90;;;;;;5031971;28;20199;-38
2022/08/14 06:56:54;;;;;;;2.97;2.67;;;16.30;54.90;;;;;;5040258;28;20227;-40
2022/08/14 06:59:25;;;;;;;5.30;3.13;;;16.20;54.80;;;;;;5051151;28;20199;-38
2022/08/14 07:07:37;;;;;;;3.47;2.95;;;16.10;54.80;;;;;;5051533;28;20218;-41
2022/08/14 07:10:08;;;;;;;5.47;3.28;;;16.10;54.80;;;;;;5050844;28;20192;-38
2022/08/14 07:12:41;;;;;;;3.88;3.22;;;16.10;54.90;;;;;;5051330;28;20687;-38
2022/08/14 07:15:12;;;;;;;3.40;2.90;;;16.00;54.80;;;;;;5050627;28;20203;-38
2022/08/14 07:17:50;;;;;;;4.10;3.13;;;16.00;54.90;;;;;;5051258;28;20236;-41
2022/08/14 07:20:21;;;;;;;4.30;3.03;;;16.00;54.90;;;;;;5050110;28;20217;-38
2022/08/14 07:22:52;;;;;;;4.72;3.20;;;16.00;54.90;;;;;;5051034;28;20199;-37
2022/08/14 07:25:22;;;;;;;3.47;3.05;;;15.90;54.80;;;;;;5050355;28;20309;-38
2022/08/14 07:27:55;;;;;;;3.85;2.97;;;15.90;54.80;;;;;;5050723;28;20235;-45
2022/08/14 07:30:26;;;;;;;4.20;2.97;;;15.90;54.90;;;;;;5051031;28;20648;-49
2022/08/14 07:32:57;;;;;;;3.95;2.58;;;15.90;54.90;;;;;;5050284;28;20215;-47
2022/08/14 07:35:28;;;;;;;3.28;2.97;;;15.80;54.90;;;;;;5049232;28;20582;-42
2022/08/14 07:37:58;;;;;;;4.10;2.58;;;15.80;54.90;;;;;;5049470;28;20206;-55
2022/08/14 07:40:29;;;;;;;3.35;2.75;;;15.70;54.90;;;;;;5050502;28;20192;-46
2022/08/14 07:43:02;;;;;;;3.40;2.97;;;15.70;54.90;;;;;;5048435;28;20192;-53
2022/08/14 07:45:33;;;;;;;3.40;2.88;;;15.70;54.90;;;;;;5034717;28;20242;-44
2022/08/14 07:48:05;;;;;;;3.45;2.97;;;15.70;54.90;;;;;;5042402;28;20210;-38
2022/08/14 07:50:36;;;;;;;3.88;3.10;;;15.60;54.90;;;;;;5051420;28;20195;-37
2022/08/14 07:53:07;;;;;;;3.28;2.90;;;15.60;54.90;;;;;;5051335;28;20749;-38
2022/08/14 07:55:38;;;;;;;3.83;3.05;;;15.60;54.90;;;;;;5050638;28;20290;-38
2022/08/14 07:58:11;;;;;;;4.05;3.05;;;15.60;55.00;;;;;;5050422;28;20218;-38
2022/08/14 08:00:45;;;;;;;3.13;2.75;;;15.50;54.90;;;;;;5049991;28;20722;-40
2022/08/14 08:03:17;;;;;;;3.58;3.08;;;15.50;54.90;;;;;;5050775;28;20202;-38
2022/08/14 08:05:48;;;;;;;3.75;3.35;;;15.40;54.90;;;;;;5050105;28;20254;-37
2022/08/14 08:08:20;;;;;;;3.50;2.90;;;15.40;54.90;;;;;;5050462;28;20207;-38
2022/08/14 08:10:51;;;;;;;4.10;2.95;;;15.40;55.10;;;;;;5049989;28;20218;-39
2022/08/14 08:13:25;;;;;;;4.30;3.03;;;15.40;55.00;;;;;;5049832;28;20590;-41
2022/08/14 08:15:57;;;;;;;4.20;3.45;;;15.40;55.00;;;;;;5049309;28;20215;-43
2022/08/14 08:18:28;;;;;;;3.55;3.10;;;15.30;55.00;;;;;;5048398;28;20273;-40
2022/08/14 08:20:59;;;;;;;4.53;3.28;;;15.30;55.00;;;;;;5049298;28;20195;-41
2022/08/14 08:23:31;;;;;;;5.40;3.38;;;15.30;55.00;;;;;;5049639;28;20203;-38
2022/08/14 08:28:44;;;;;;;3.97;3.22;;;15.20;55.00;;;;;;5046844;28;20247;-51
2022/08/14 08:31:15;;;;;;;4.22;3.20;;;15.20;55.00;;;;;;5049018;28;20207;-51
2022/08/14 08:33:52;;;;;;;5.07;3.50;;;15.20;55.00;;;;;;5049091;28;20222;-58
2022/08/14 08:36:23;;;;;;;4.05;3.35;;;15.10;55.00;;;;;;5049567;28;20690;-53
2022/08/14 08:39:02;;;;;;;4.30;3.47;;;15.10;55.10;;;;;;5050296;28;20265;-52
2022/08/14 08:41:43;;;;;;;3.33;3.03;;;15.00;55.00;;;;;;5045938;28;20195;-58
2022/08/14 08:44:16;;;;;;;3.60;3.22;;;15.00;55.10;;;;;;5010450;28;20203;-53
2022/08/14 08:46:47;;;;;;;3.47;3.10;;;15.00;55.10;;;;;;5028943;28;20236;-53
2022/08/14 08:49:18;;;;;;;4.10;3.20;;;15.00;55.20;;;;;;5032687;28;20200;-54
2022/08/14 08:51:49;;;;;;;4.40;3.50;;;14.90;55.10;;;;;;5034068;28;20206;-52
2022/08/14 08:54:20;;;;;;;5.47;3.28;;;14.90;55.10;;;;;;5033979;28;20214;-54
2022/08/14 08:56:53;;;;;;;3.72;2.80;;;14.90;55.10;;;;;;5033875;28;20677;-51
2022/08/14 08:59:27;;;;;;;3.83;3.30;;;14.90;55.10;;;;;;5034014;28;20196;-52
2022/08/14 09:01:59;;;;;;;3.80;3.42;;;14.80;55.10;;;;;;5034383;28;20660;-51
2022/08/14 09:04:32;;;;;;;4.18;3.40;;;14.80;55.10;;;;;;5030515;28;21283;-49
2022/08/14 09:07:03;;;;;;;3.85;3.45;;;14.80;55.40;;;;;;5031654;28;20301;-48
2022/08/14 09:09:49;;;;;;;4.30;3.00;;;14.80;56.10;;;;;;5030614;28;20635;-53
2022/08/14 09:12:21;;;;;;;4.28;3.42;;;14.80;55.40;;;;;;5030197;28;20196;-58
2022/08/14 09:14:54;;;;;;;4.00;3.53;;;14.80;55.40;;;;;;5027973;28;20590;-50
2022/08/14 09:17:25;;;;;;;4.63;3.30;;;14.80;55.40;;;;;;5013054;28;20225;-49
2022/08/14 09:19:57;;;;;;;4.88;3.22;;;14.70;55.30;;;;;;5013515;28;20723;-50
2022/08/14 09:22:29;;;;;;;4.40;3.40;;;14.70;55.30;;;;;;5013474;28;20735;-50
2022/08/14 09:25:00;;;;;;;3.17;2.88;;;14.60;55.40;;;;;;5027851;28;20224;-49
2022/08/14 09:27:32;;;;;;;3.88;3.03;;;14.60;55.40;;;;;;5082990;22;20240;-52
2022/08/14 09:30:06;;;;;;;3.95;3.35;;;14.60;55.30;;;;;;5070819;28;20199;-38
2022/08/14 09:32:56;;;;;;;5.80;3.38;;;14.60;55.30;;;;;;5073253;28;20226;-41
2022/08/14 09:35:43;;;;;;;3.20;2.92;;;14.60;55.30;;;;;;5072430;28;20546;-42
2022/08/14 09:38:26;;;;;;;3.38;3.03;;;14.60;55.30;;;;;;5053603;28;20579;-44
2022/08/14 09:41:06;;;;;;;3.47;3.17;;;14.50;55.30;;;;;;5031685;28;20197;-44
2022/08/14 09:43:47;;;;;;;4.55;3.15;;;14.50;55.40;;;;;;5033136;28;20200;-39
2022/08/14 09:46:20;;;;;;;4.13;3.53;;;14.50;55.40;;;;;;5037932;28;20230;-37
2022/08/14 09:49:00;;;;;;;4.85;3.20;;;14.50;55.50;;;;;;5053048;28;20206;-40
2022/08/14 09:51:33;;;;;;;5.30;3.33;;;14.40;55.40;;;;;;5052818;28;20192;-39
2022/08/14 09:54:06;;;;;;;4.05;3.42;;;14.40;55.40;;;;;;5052271;28;20202;-48
2022/08/14 09:56:51;;;;;;;4.82;3.60;;;14.40;55.50;;;;;;5051056;28;20305;-40
2022/08/14 09:59:25;;;;;;;3.80;3.38;;;14.40;55.50;;;;;;5050508;28;20261;-47
2022/08/14 10:01:58;;;;;;;4.15;3.10;;;14.30;55.40;;;;;;5033358;28;20279;-47
2022/08/14 10:04:29;;;;;;;3.72;3.33;;;14.30;55.40;;;;;;5032328;28;20223;-42
2022/08/14 10:07:00;;;;;;;4.20;3.28;;;14.30;55.40;;;;;;5032694;28;20286;-44
2022/08/14 10:09:31;;;;;;;5.35;3.70;;;14.30;55.40;;;;;;5032003;28;20200;-42
2022/08/14 10:12:02;;;;;;;4.68;2.83;;;14.20;55.40;;;;;;5052366;28;20202;-40
2022/08/14 10:14:35;;;;;;;4.40;3.47;;;14.20;55.40;;;;;;5052227;28;20202;-40
2022/08/14 10:17:08;;;;;;;4.55;3.13;;;14.20;55.40;;;;;;5032515;28;20224;-45
2022/08/14 10:19:50;;;;;;;4.25;3.25;;;14.20;55.40;;;;;;5032498;28;20200;-35
2022/08/14 10:22:29;;;;;;;5.05;3.67;;;14.20;55.50;;;;;;5034470;28;20199;-35
2022/08/14 10:25:12;;;;;;;3.97;3.40;;;14.20;55.50;;;;;;5047197;28;20241;-35
2022/08/14 10:27:45;;;;;;;5.13;3.42;;;14.10;56.00;;;;;;5052040;28;20633;-35
2022/08/14 10:30:19;;;;;;;4.20;3.53;;;14.10;55.40;;;;;;5043378;28;20199;-35
2022/08/14 10:32:53;;;;;;;4.60;3.72;;;14.10;55.50;;;;;;5031986;28;20219;-35
2022/08/14 10:35:23;;;;;;;4.03;3.20;;;14.00;55.40;;;;;;5031974;28;20275;-35
2022/08/14 10:37:54;;;;;;;3.65;3.00;;;14.00;55.40;;;;;;5031792;28;20224;-35
2022/08/14 10:40:30;;;;;;;5.55;3.58;;;14.00;55.40;;;;;;5031167;28;20188;-35
2022/08/14 10:43:01;;;;;;;3.83;3.13;;;14.00;55.50;;;;;;5045170;28;20203;-38
2022/08/14 10:45:34;;;;;;;3.50;3.13;;;14.00;55.40;;;;;;5050858;28;20591;-36
2022/08/14 10:48:17;;;;;;;4.38;3.28;;;14.00;55.40;;;;;;5052461;28;20211;-38
2022/08/14 10:50:50;;;;;;;4.03;3.08;;;14.00;55.50;;;;;;5051012;28;20187;-35
2022/08/14 10:53:31;;;;;;;4.32;3.20;;;14.00;55.50;;;;;;5049619;28;20542;-36
2022/08/14 10:56:05;;;;;;;5.18;3.70;;;13.90;55.40;;;;;;5050342;28;20223;-36
2022/08/14 10:58:37;;;;;;;4.45;2.78;;;13.90;55.50;;;;;;5049564;28;20416;-40
2022/08/14 11:01:08;;;;;;;4.70;3.83;;;13.90;55.40;;;;;;5040135;28;20192;-39
2022/08/14 11:03:46;;;;;;;4.60;3.35;;;13.90;55.50;;;;;;5031505;28;20208;-42
2022/08/14 11:06:21;;;;;;;5.57;3.40;;;13.90;55.50;;;;;;5030568;28;20216;-35
2022/08/14 11:08:52;;;;;;;4.07;3.20;;;13.80;55.40;;;;;;5030145;28;20198;-38
2022/08/14 11:11:25;;;;;;;4.25;3.33;;;13.80;55.40;;;;;;5031061;28;20234;-40
2022/08/14 11:13:58;;;;;;;4.53;3.45;;;13.80;55.40;;;;;;5030711;28;20196;-35
2022/08/14 11:16:29;;;;;;;5.40;3.80;;;13.80;55.40;;;;;;5031618;28;20216;-42
2022/08/14 11:19:05;;;;;;;4.78;3.60;;;13.80;55.40;;;;;;5041132;28;20195;-50
2022/08/14 11:21:38;;;;;;;5.45;3.80;;;13.80;55.40;;;;;;5050824;28;20199;-39
2022/08/14 11:24:12;;;;;;;4.32;3.53;;;13.70;55.60;;;;;;5050533;28;20226;-43
2022/08/14 11:26:45;;;;;;;5.30;3.92;;;13.70;55.40;;;;;;5050624;28;20262;-39
2022/08/14 11:29:17;;;;;;;5.38;3.67;;;13.70;55.40;;;;;;5050515;28;20199;-45
2022/08/14 11:31:48;;;;;;;4.53;4.00;;;13.70;55.40;;;;;;5063673;28;20210;-45
2022/08/14 11:34:20;;;;;;;5.13;3.92;;;13.60;55.50;;;;;;5069990;28;20870;-46
2022/08/14 11:36:51;;;;;;;3.90;3.33;;;13.60;55.50;;;;;;5069932;28;20237;-48
2022/08/14 11:39:23;;;;;;;5.00;3.83;;;13.60;55.50;;;;;;5070079;28;20205;-41
2022/08/14 11:41:56;;;;;;;4.47;4.03;;;13.60;55.50;;;;;;5069872;28;20597;-46
2022/08/14 11:44:27;;;;;;;4.50;3.78;;;13.60;55.50;;;;;;5070025;28;20355;-45
2022/08/14 11:46:58;;;;;;;4.53;3.85;;;13.60;55.50;;;;;;5053631;28;20234;-48
2022/08/14 11:49:33;;;;;;;4.78;4.15;;;13.50;55.40;;;;;;5045338;28;20196;-41
2022/08/14 11:52:05;;;;;;;5.45;4.07;;;13.50;55.40;;;;;;5029927;28;20798;-38
2022/08/14 11:54:37;;;;;;;4.93;3.70;;;13.50;55.40;;;;;;5030023;28;20285;-46
2022/08/14 11:57:14;;;;;;;4.97;3.15;;;13.50;55.40;;;;;;5033456;28;20216;-40
2022/08/14 11:59:45;;;;;;;4.68;4.00;;;13.50;55.40;;;;;;5029949;28;20199;-45
2022/08/14 12:02:19;;;;;;;4.18;3.72;;;13.50;55.40;;;;;;5030578;28;20204;-44
2022/08/14 12:04:56;;;;;;;4.35;3.95;;;13.40;55.40;;;;;;5029486;28;20200;-45
2022/08/14 12:07:27;;;;;;;4.85;4.03;;;13.40;55.40;;;;;;5029354;28;20223;-38
2022/08/14 12:09:59;;;;;;;5.53;3.72;;;13.40;55.40;;;;;;5029704;28;20196;-39
2022/08/14 12:12:31;;;;;;;4.25;3.65;;;13.40;55.40;;;;;;5029663;28;20273;-39
2022/08/14 12:15:02;;;;;;;5.55;4.15;;;13.40;55.40;;;;;;5029546;28;20232;-49
2022/08/14 12:17:44;;;;;;;5.30;3.78;;;13.30;55.40;;;;;;5035114;28;20680;-39
2022/08/14 12:20:17;;;;;;;6.10;3.92;;;13.30;55.40;;;;;;5040432;28;20208;-45
2022/08/14 12:22:48;;;;;;;5.70;3.60;;;13.30;55.40;;;;;;5029491;28;20553;-43
2022/08/14 12:25:27;;;;;;;6.43;3.78;;;13.30;55.40;;;;;;5028919;28;20210;-47
2022/08/14 12:27:59;;;;;;;3.78;3.38;;;13.30;55.30;;;;;;5034009;28;20228;-38
2022/08/14 12:30:33;;;;;;;6.07;4.25;;;13.30;55.30;;;;;;5029672;28;20196;-42
2022/08/14 12:33:05;;;;;;;5.97;4.10;;;13.30;55.40;;;;;;5045752;28;20556;-50
2022/08/14 12:35:43;;;;;;;4.82;3.85;;;13.20;55.30;;;;;;5028872;28;20226;-49
2022/08/14 12:38:15;;;;;;;5.00;3.70;;;13.20;55.40;;;;;;5028173;28;20215;-35
2022/08/14 12:40:50;;;;;;;3.97;3.22;;;13.20;55.40;;;;;;5029360;28;20204;-37
2022/08/14 12:43:22;;;;;;;3.97;3.47;;;13.20;55.30;;;;;;5037001;28;20198;-36
2022/08/14 12:45:55;;;;;;;5.32;3.70;;;13.20;55.40;;;;;;5046150;28;20215;-39
2022/08/14 12:48:28;;;;;;;5.18;3.42;;;13.10;55.30;;;;;;5048446;28;20223;-41
2022/08/14 12:51:00;;;;;;;4.53;3.13;;;13.10;55.30;;;;;;5049188;28;20207;-42
2022/08/14 12:53:38;;;;;;;4.53;3.42;;;13.10;55.40;;;;;;5049308;28;20222;-44
2022/08/14 12:56:08;;;;;;;4.85;3.10;;;13.10;55.30;;;;;;5048665;28;20276;-36
2022/08/14 12:58:41;;;;;;;5.50;3.60;;;13.10;55.30;;;;;;5031287;28;20200;-37
2022/08/14 13:01:12;;;;;;;4.60;3.65;;;13.10;55.30;;;;;;5033692;28;20253;-40
2022/08/14 13:03:45;;;;;;;5.35;3.53;;;13.10;55.30;;;;;;5048942;28;20203;-42
2022/08/14 13:06:18;;;;;;;5.35;3.35;;;13.10;55.30;;;;;;5049040;28;20336;-46
2022/08/14 13:08:51;;;;;;;5.25;3.70;;;13.00;55.30;;;;;;5048854;28;20772;-41
2022/08/14 13:11:24;;;;;;;5.20;3.83;;;13.00;55.30;;;;;;5048771;28;20199;-35
2022/08/14 13:13:59;;;;;;;4.32;3.30;;;13.00;55.30;;;;;;5048711;28;20195;-37
2022/08/14 13:16:33;;;;;;;5.97;3.42;;;13.00;55.30;;;;;;5054477;28;20814;-41
2022/08/14 13:19:04;;;;;;;5.15;3.60;;;13.00;55.30;;;;;;5058407;28;20196;-39
2022/08/14 13:21:37;;;;;;;4.07;3.25;;;12.90;55.30;;;;;;5048641;28;20192;-43
2022/08/14 13:24:11;;;;;;;5.28;3.45;;;12.90;55.30;;;;;;5048575;28;20222;-45
2022/08/14 13:26:46;;;;;;;4.38;3.17;;;12.90;55.20;;;;;;5049036;28;20223;-39
2022/08/14 13:29:20;;;;;;;4.07;3.20;;;12.90;55.20;;;;;;5048725;28;20206;-35
2022/08/14 13:31:53;;;;;;;4.80;3.28;;;12.90;55.20;;;;;;5056936;28;20195;-35
2022/08/14 13:34:25;;;;;;;4.80;3.38;;;12.90;55.30;;;;;;5072068;28;20666;-35